Iskenderun, Turkey

8:56 PM EEST on August 04, 2015 (GMT +0300)
Cezayirlioglu Ciftligi | | Change Station
CLOSE
Current Station
Personal Weather Station
Location: Hatay, HATAY
Elevation: 410 ft
Nearby Weather Stations

Elev 410 ft 36.43 °N, 36.54 °E | Updated 2 seconds ago

Clear
Clear
88.5 °F
Feels Like 88 °F
N
1.8
Wind Variable Wind from SW
Gusts 2.5 mph

Today
High -- | Low -- °F
--% Chance of Precip.
Yesterday
High -- | Low -- °F
Precip. -- in
5:43 AM 7:39 PM
Waning Gibbous, 76% visible
Pressure 29.71 in
Visibility -9999.0 miles
Clouds
Heat Index 88 °F
Dew Point 60 °F
Humidity 39%
Rainfall 0.00 in
Snow Depth Not available.
UV 0.0 out of 12
Pollen Not available.
Air Quality Not available.
Flu Activity Not available.
METAR LTAG 041720Z 17007KT CAVOK 30/23 Q1006 NOSIG

More Conditions Fewer Conditions

Pressure 29.71 in
Visibility -9999.0 miles
Clouds
Heat Index 88 °F
Dew Point 60 °F
Humidity 39%
Rainfall 0.00 in
Snow Depth Not available.
UV 0.0 out of 12
Pollen Not available.
Air Quality Not available.
Flu Activity Not available.
METAR LTAG 041720Z 17007KT CAVOK 30/23 Q1006 NOSIG

More Conditions Fewer Conditions

10-Day Weather Forecast

×

Almanac

Astronomy

Aug. 04, 2015 Rise Set
Actual Time
Civil Twilight
Nautical Twilight
Astronomical Twilight
Moon
Length of Visible Light
Length of Day
Tomorrow will be .
, % of the Moon is Illuminated

Today's Extremes

Country Highs Country Lows

Community

WunderPhotos

Upload Photos

1,843,927 photos uploaded!

WunderBlogs® & News

Nearby

Air Quality

  Air Quality AQ Index Pollutant
Not available.

Snow Depth

Station Depth Elevation

Earthquake Activity

City Distance Mag. Time & Date
Minimum magnitude displayed is 2.5.

Coastal Water Temperatures

Place Temperature

Stations

Nearby Weather Stations

Station Location Temp. Windchill Dew Point Humidity Wind Precip. Elev Updated Type